createdAt,value
2019-01-18T00:02:25.386Z,1.93
2019-01-18T00:04:53.681Z,1.87
2019-01-18T00:07:21.391Z,2.67
2019-01-18T00:09:48.981Z,2.80
2019-01-18T00:12:16.622Z,2.00
2019-01-18T00:14:44.055Z,2.77
2019-01-18T00:17:11.496Z,2.37
2019-01-18T00:19:39.926Z,2.37
2019-01-18T00:22:07.281Z,2.20
2019-01-18T00:24:34.746Z,2.17
2019-01-18T00:27:02.152Z,2.47
2019-01-18T00:29:29.897Z,2.50
2019-01-18T00:31:57.422Z,2.00
2019-01-18T00:34:24.892Z,2.20
2019-01-18T00:36:52.265Z,5.83
2019-01-18T00:39:19.689Z,3.33
2019-01-18T00:41:47.125Z,7.60
2019-01-18T00:44:14.532Z,4.83
2019-01-18T00:46:41.950Z,4.03
2019-01-18T00:49:09.360Z,3.30
2019-01-18T00:51:36.850Z,2.57
2019-01-18T00:54:04.366Z,4.10
2019-01-18T00:56:31.875Z,3.37
2019-01-18T00:58:59.245Z,6.67
2019-01-18T01:01:26.805Z,5.13
2019-01-18T01:03:54.245Z,3.77
2019-01-18T01:06:21.676Z,6.30
2019-01-18T01:08:49.050Z,3.43
2019-01-18T01:11:16.511Z,3.23
2019-01-18T01:13:44.261Z,6.83
2019-01-18T01:16:14.586Z,2.57
2019-01-18T01:18:42.070Z,5.73
2019-01-18T01:21:09.865Z,3.40
2019-01-18T01:23:37.260Z,3.10
2019-01-18T01:26:04.730Z,3.77
2019-01-18T01:28:32.152Z,2.40
2019-01-18T01:31:01.770Z,3.63
2019-01-18T01:33:29.160Z,3.50
2019-01-18T01:35:56.790Z,3.53
2019-01-18T01:38:24.304Z,4.50
2019-01-18T01:40:51.785Z,8.00
2019-01-18T01:43:19.191Z,7.30
2019-01-18T01:45:46.705Z,3.07
2019-01-18T01:48:14.086Z,2.90
2019-01-18T01:50:41.486Z,5.60
2019-01-18T01:53:08.946Z,2.57
2019-01-18T01:55:36.340Z,3.73
2019-01-18T01:58:04.706Z,2.50
2019-01-18T02:00:32.171Z,3.93
2019-01-18T02:02:59.676Z,3.60
2019-01-18T02:05:27.226Z,1.90
2019-01-18T02:07:54.726Z,9.47
2019-01-18T02:10:22.151Z,3.93
2019-01-18T02:12:49.605Z,6.63
2019-01-18T02:15:19.383Z,3.17
2019-01-18T02:17:46.823Z,2.93
2019-01-18T02:20:17.110Z,4.30
2019-01-18T02:22:44.770Z,3.73
2019-01-18T02:25:12.265Z,3.10
2019-01-18T02:27:40.091Z,4.47
2019-01-18T02:30:10.730Z,6.70
2019-01-18T02:32:38.192Z,4.90
2019-01-18T02:35:05.866Z,6.17
2019-01-18T02:37:33.355Z,4.77
2019-01-18T02:40:00.839Z,3.90
2019-01-18T02:42:28.262Z,3.93
2019-01-18T02:44:55.677Z,5.40
2019-01-18T02:47:23.090Z,4.00
2019-01-18T02:49:50.537Z,4.27
2019-01-18T02:52:18.005Z,4.40
2019-01-18T02:54:45.439Z,4.40
2019-01-18T02:57:12.915Z,4.70
2019-01-18T02:59:40.436Z,3.60
2019-01-18T03:02:07.870Z,6.10
2019-01-18T03:04:35.375Z,5.63
2019-01-18T03:07:02.785Z,7.97
2019-01-18T03:09:30.220Z,4.60
2019-01-18T03:11:57.626Z,5.23
2019-01-18T03:14:26.146Z,5.57
2019-01-18T03:16:53.795Z,5.30
2019-01-18T03:19:21.276Z,3.30
2019-01-18T03:21:48.691Z,4.33
2019-01-18T03:24:16.153Z,4.37
2019-01-18T03:26:43.575Z,4.33
2019-01-18T03:29:10.986Z,5.43
2019-01-18T03:31:38.418Z,4.10
2019-01-18T03:34:05.945Z,3.33
2019-01-18T03:36:33.430Z,5.63
2019-01-18T03:39:00.920Z,3.83
2019-01-18T03:41:29.021Z,3.50
2019-01-18T03:43:56.465Z,4.30
2019-01-18T03:46:23.872Z,5.70
2019-01-18T03:48:51.305Z,4.33
2019-01-18T03:51:18.700Z,6.37
2019-01-18T03:53:46.186Z,5.20
2019-01-18T03:56:13.603Z,7.77
2019-01-18T03:58:41.042Z,5.73
2019-01-18T04:01:08.435Z,6.27
2019-01-18T04:03:35.921Z,6.80
2019-01-18T04:06:03.447Z,6.17
2019-01-18T04:08:30.885Z,5.40
2019-01-18T04:10:58.315Z,8.23
2019-01-18T04:13:25.755Z,6.70
2019-01-18T04:15:53.171Z,7.63
2019-01-18T04:18:20.630Z,8.90
2019-01-18T04:20:48.071Z,8.07
2019-01-18T04:23:15.467Z,6.60
2019-01-18T04:25:43.046Z,8.03
2019-01-18T04:28:10.425Z,9.37
2019-01-18T04:30:37.861Z,6.97
2019-01-18T04:33:05.631Z,8.60
2019-01-18T04:35:33.070Z,7.83
2019-01-18T04:38:00.783Z,8.50
2019-01-18T04:40:28.261Z,7.63
2019-01-18T04:42:55.780Z,10.23
2019-01-18T04:45:23.435Z,10.63
2019-01-18T04:47:51.146Z,9.00
2019-01-18T04:50:20.449Z,9.43
2019-01-18T04:52:47.886Z,9.80
2019-01-18T04:55:15.725Z,7.20
2019-01-18T04:57:43.230Z,8.37
2019-01-18T05:00:14.465Z,10.67
2019-01-18T05:02:41.890Z,11.10
2019-01-18T05:05:09.518Z,9.13
2019-01-18T05:07:37.020Z,9.27
2019-01-18T05:10:05.736Z,8.93
2019-01-18T05:12:33.130Z,10.53
2019-01-18T05:15:00.580Z,11.50
2019-01-18T05:17:27.986Z,13.33
2019-01-18T05:19:57.495Z,10.30
2019-01-18T05:22:24.919Z,7.20
2019-01-18T05:24:52.355Z,9.87
2019-01-18T05:27:19.779Z,10.17
2019-01-18T05:29:47.186Z,10.77
2019-01-18T05:32:14.680Z,7.07
2019-01-18T05:34:42.068Z,9.73
2019-01-18T05:37:09.560Z,8.27
2019-01-18T05:39:36.962Z,11.03
2019-01-18T05:42:04.555Z,10.97
2019-01-18T05:44:32.037Z,13.03
2019-01-18T05:46:59.556Z,10.93
2019-01-18T05:49:26.926Z,12.90
2019-01-18T05:51:54.385Z,10.67
2019-01-18T05:54:21.785Z,11.47
2019-01-18T05:56:49.266Z,15.47
2019-01-18T05:59:16.860Z,12.27
2019-01-18T06:01:44.626Z,12.93
2019-01-18T06:04:12.052Z,15.43
2019-01-18T06:06:39.527Z,14.83
2019-01-18T06:09:08.084Z,16.00
2019-01-18T06:11:35.576Z,20.70
2019-01-18T06:14:03.143Z,14.03
2019-01-18T06:16:30.705Z,13.60
2019-01-18T06:19:46.910Z,15.87
2019-01-18T06:22:14.366Z,13.07
2019-01-18T06:24:41.868Z,13.20
2019-01-18T06:27:09.316Z,13.87
2019-01-18T06:29:36.802Z,14.37
2019-01-18T06:32:04.350Z,15.53
2019-01-18T06:34:31.835Z,12.97
2019-01-18T06:36:59.310Z,14.10
2019-01-18T06:39:26.710Z,14.67
2019-01-18T06:41:54.291Z,15.90
2019-01-18T06:44:22.496Z,11.30
2019-01-18T06:46:50.190Z,15.37
2019-01-18T06:49:18.705Z,11.67
2019-01-18T06:51:46.815Z,16.60
2019-01-18T06:54:14.273Z,13.20
2019-01-18T06:56:41.730Z,13.03
2019-01-18T06:59:09.152Z,13.00
2019-01-18T07:01:36.615Z,13.23
2019-01-18T07:04:04.265Z,13.67
2019-01-18T07:06:32.146Z,10.67
2019-01-18T07:08:59.525Z,11.77
2019-01-18T07:11:27.385Z,12.20
2019-01-18T07:13:54.792Z,12.37
2019-01-18T07:16:22.270Z,13.10
2019-01-18T07:18:49.677Z,14.33
2019-01-18T07:21:17.245Z,16.13
2019-01-18T07:23:44.645Z,17.07
2019-01-18T07:26:12.075Z,14.77
2019-01-18T07:28:39.486Z,15.07
2019-01-18T07:31:06.971Z,13.83
2019-01-18T07:33:34.365Z,18.80
2019-01-18T07:36:01.756Z,13.03
2019-01-18T07:38:29.219Z,15.33
2019-01-18T07:40:56.645Z,13.17
2019-01-18T07:43:24.121Z,14.13
2019-01-18T07:45:51.547Z,16.10
2019-01-18T07:48:19.031Z,15.73
2019-01-18T07:50:46.446Z,13.43
2019-01-18T07:53:14.116Z,13.43
2019-01-18T07:55:41.529Z,12.80
2019-01-18T07:58:09.037Z,9.97
2019-01-18T08:00:36.520Z,11.07
2019-01-18T08:03:04.095Z,12.57
2019-01-18T08:05:31.894Z,13.13
2019-01-18T08:07:59.462Z,11.97
2019-01-18T08:10:26.997Z,12.07
2019-01-18T08:12:54.462Z,9.53
2019-01-18T08:15:23.628Z,12.27
2019-01-18T08:17:51.202Z,13.23
2019-01-18T08:20:20.780Z,11.80
2019-01-18T08:22:48.353Z,12.53
2019-01-18T08:25:15.837Z,11.13
2019-01-18T08:27:43.556Z,9.47
2019-01-18T08:30:19.127Z,10.07
2019-01-18T08:32:46.562Z,11.80
2019-01-18T08:35:15.283Z,10.10
2019-01-18T08:37:42.872Z,11.93
2019-01-18T08:40:12.732Z,10.43
2019-01-18T08:42:40.388Z,10.80
2019-01-18T08:45:10.222Z,9.57
2019-01-18T08:47:37.703Z,13.40
2019-01-18T08:50:08.403Z,10.20
2019-01-18T08:52:35.881Z,9.17
2019-01-18T08:55:03.782Z,11.30
2019-01-18T08:57:31.275Z,8.67
2019-01-18T08:59:58.672Z,8.90
2019-01-18T09:02:26.147Z,7.63
2019-01-18T09:04:53.671Z,12.53
2019-01-18T09:07:21.526Z,5.73
2019-01-18T09:09:49.027Z,6.43
2019-01-18T09:12:18.922Z,6.60
2019-01-18T09:14:46.402Z,5.83
2019-01-18T09:17:13.898Z,5.87
2019-01-18T09:19:41.354Z,5.23
2019-01-18T09:22:08.762Z,4.47
2019-01-18T09:24:36.219Z,4.30
2019-01-18T09:27:03.739Z,4.63
2019-01-18T09:29:31.213Z,10.13
2019-01-18T09:31:59.203Z,6.90
2019-01-18T09:34:26.673Z,4.07
2019-01-18T09:36:54.076Z,5.97
2019-01-18T09:39:21.573Z,12.40
2019-01-18T09:41:49.017Z,3.87
2019-01-18T09:44:16.497Z,5.63
2019-01-18T09:46:46.863Z,6.13
2019-01-18T09:49:14.427Z,7.53
2019-01-18T09:51:43.773Z,5.77
2019-01-18T09:54:11.242Z,5.83
2019-01-18T09:56:38.687Z,5.27
2019-01-18T09:59:06.192Z,6.47
2019-01-18T10:01:33.613Z,5.50
2019-01-18T10:04:01.132Z,5.30
2019-01-18T10:06:28.617Z,6.50
2019-01-18T10:08:56.100Z,4.30
2019-01-18T10:11:23.499Z,5.87
2019-01-18T10:13:50.977Z,5.13
2019-01-18T10:16:18.393Z,5.93
2019-01-18T10:18:46.018Z,7.63
2019-01-18T10:21:13.417Z,4.00
2019-01-18T10:23:40.877Z,5.90
2019-01-18T10:26:08.341Z,5.80
2019-01-18T10:28:35.802Z,11.93
2019-01-18T10:31:03.452Z,5.50
2019-01-18T10:33:30.862Z,5.50
2019-01-18T10:35:58.348Z,5.03
2019-01-18T10:38:25.810Z,5.53
2019-01-18T10:40:53.320Z,5.83
2019-01-18T10:43:20.832Z,5.27
2019-01-18T10:45:48.348Z,6.67
2019-01-18T10:48:16.212Z,8.50
2019-01-18T10:50:43.708Z,5.63
2019-01-18T10:53:11.183Z,5.87
2019-01-18T10:55:38.647Z,6.57
2019-01-18T10:58:06.057Z,7.10
2019-01-18T11:00:35.302Z,5.43
2019-01-18T11:03:02.702Z,4.40
2019-01-18T11:05:30.292Z,6.47
2019-01-18T11:07:57.808Z,8.47
2019-01-18T11:10:25.297Z,8.07
2019-01-18T11:12:52.807Z,7.83
2019-01-18T11:15:22.544Z,8.37
2019-01-18T11:17:49.967Z,9.40
2019-01-18T11:20:20.107Z,14.53
2019-01-18T11:22:48.357Z,14.33
2019-01-18T11:25:15.852Z,11.97
2019-01-18T11:27:43.428Z,10.57
2019-01-18T11:30:13.422Z,12.83
2019-01-18T11:32:40.963Z,12.60
2019-01-18T11:35:09.927Z,11.40
2019-01-18T11:37:37.437Z,12.63
2019-01-18T11:40:08.687Z,10.07
2019-01-18T11:42:36.502Z,10.70
2019-01-18T11:45:05.153Z,15.73
2019-01-18T11:47:32.584Z,9.60
2019-01-18T11:50:00.052Z,10.53
2019-01-18T11:52:27.574Z,10.20
2019-01-18T11:54:55.197Z,11.43
2019-01-18T11:57:22.683Z,14.60
2019-01-18T11:59:50.571Z,10.20
2019-01-18T12:02:22.036Z,11.43
2019-01-18T12:04:47.433Z,14.73
2019-01-18T12:07:14.907Z,10.97
2019-01-18T12:09:42.298Z,10.87
2019-01-18T12:12:09.803Z,11.20
2019-01-18T12:14:37.223Z,16.03
2019-01-18T12:17:04.742Z,13.43
2019-01-18T12:19:32.168Z,15.83
2019-01-18T12:22:00.373Z,20.30
2019-01-18T12:24:27.766Z,14.33
2019-01-18T13:08:57.569Z,17.80
2019-01-18T13:23:12.321Z,17.47
2019-01-18T13:33:04.046Z,17.63
2019-01-18T13:35:31.648Z,12.93
2019-01-18T13:38:02.237Z,11.70
2019-01-18T13:40:29.707Z,12.30
2019-01-18T13:43:02.702Z,10.00
2019-01-18T13:45:30.204Z,13.97
2019-01-18T13:48:00.163Z,10.80
2019-01-18T13:50:27.751Z,10.90
2019-01-18T13:52:55.222Z,9.63
2019-01-18T13:55:24.313Z,6.73
2019-01-18T13:57:51.842Z,14.77
2019-01-18T14:00:19.488Z,7.00
2019-01-18T14:02:48.625Z,5.17
2019-01-18T14:05:16.458Z,6.37
2019-01-18T14:07:45.397Z,3.73
2019-01-18T14:10:21.082Z,3.23
2019-01-18T14:12:48.581Z,3.07
2019-01-18T14:15:18.863Z,5.47
2019-01-18T14:17:46.379Z,6.80
2019-01-18T14:20:22.203Z,3.90
2019-01-18T14:22:50.714Z,4.00
2019-01-18T14:25:18.481Z,3.97
2019-01-18T14:27:45.977Z,4.83
2019-01-18T14:30:18.838Z,4.50
2019-01-18T14:32:46.322Z,3.80
2019-01-18T14:35:13.758Z,5.33
2019-01-18T14:37:43.512Z,3.90
2019-01-18T14:40:12.342Z,4.77
2019-01-18T14:42:39.816Z,6.30
2019-01-18T14:45:13.292Z,7.57
2019-01-18T14:47:40.753Z,4.97
2019-01-18T14:50:19.091Z,7.03
2019-01-18T14:52:46.692Z,7.97
2019-01-18T14:55:14.109Z,7.47
2019-01-18T14:57:41.688Z,8.23
2019-01-18T15:00:16.062Z,5.30
2019-01-18T15:02:43.517Z,5.67
2019-01-18T15:05:11.076Z,7.27
2019-01-18T15:07:38.492Z,5.30
2019-01-18T15:10:08.482Z,6.70
2019-01-18T15:12:35.878Z,6.07
2019-01-18T15:15:04.666Z,8.40
2019-01-18T15:17:34.666Z,6.23
2019-01-18T15:20:17.222Z,5.40
2019-01-18T15:22:44.861Z,6.53
2019-01-18T15:25:12.322Z,5.80
2019-01-18T15:27:40.152Z,6.43
2019-01-18T15:30:09.833Z,7.37
2019-01-18T15:32:37.347Z,5.13
2019-01-18T15:35:06.797Z,7.53
2019-01-18T15:37:34.248Z,6.90
2019-01-18T15:40:01.726Z,7.27
2019-01-18T15:42:29.124Z,6.63
2019-01-18T15:44:56.572Z,5.77
2019-01-18T15:47:23.987Z,10.90
2019-01-18T15:49:51.457Z,5.27
2019-01-18T15:52:18.937Z,8.70
2019-01-18T15:54:46.616Z,9.67
2019-01-18T15:57:14.167Z,5.43
2019-01-18T15:59:41.838Z,6.23
2019-01-18T16:02:09.231Z,7.83
2019-01-18T16:04:36.761Z,5.77
2019-01-18T16:07:04.212Z,7.43
2019-01-18T16:09:31.662Z,9.07
2019-01-18T16:11:59.822Z,7.10
2019-01-18T16:14:27.467Z,8.37
2019-01-18T16:17:02.955Z,8.20
2019-01-18T16:19:30.400Z,6.40
2019-01-18T16:21:57.842Z,7.80
2019-01-18T16:24:25.304Z,8.13
2019-01-18T16:26:53.047Z,10.57
2019-01-18T16:29:20.532Z,10.43
2019-01-18T16:31:47.939Z,8.50
2019-01-18T16:34:15.572Z,8.67
2019-01-18T16:36:42.997Z,9.53
2019-01-18T16:39:10.444Z,8.67
2019-01-18T16:41:37.937Z,8.77
2019-01-18T16:44:05.472Z,9.23
2019-01-18T16:46:33.047Z,12.60
2019-01-18T16:49:00.561Z,11.60
2019-01-18T16:51:28.053Z,14.50
2019-01-18T16:53:55.817Z,13.07
2019-01-18T16:56:23.332Z,11.30
2019-01-18T16:58:50.797Z,10.40
2019-01-18T17:01:18.263Z,9.93
2019-01-18T17:03:45.756Z,11.50
2019-01-18T17:06:13.463Z,12.60
2019-01-18T17:08:41.712Z,10.80
2019-01-18T17:11:09.143Z,12.23
2019-01-18T17:13:38.358Z,11.47
2019-01-18T17:16:08.281Z,11.90
2019-01-18T17:18:35.821Z,11.40
2019-01-18T17:21:03.399Z,13.73
2019-01-18T17:23:31.042Z,12.97
2019-01-18T17:25:58.721Z,10.50
2019-01-18T17:28:26.141Z,11.63
2019-01-18T17:30:53.647Z,11.53
2019-01-18T17:33:22.052Z,12.70
2019-01-18T17:36:17.042Z,11.57
2019-01-18T17:39:24.913Z,15.87
2019-01-18T17:42:43.237Z,12.03
2019-01-18T17:45:51.448Z,9.47
2019-01-18T17:48:53.742Z,12.30
2019-01-18T17:51:45.639Z,14.13
2019-01-18T17:54:50.932Z,14.03
2019-01-18T17:58:11.913Z,11.70
2019-01-18T18:00:49.704Z,11.57
2019-01-18T18:03:52.218Z,11.47
2019-01-18T18:07:03.357Z,8.97
2019-01-18T18:10:01.662Z,12.73
2019-01-18T18:12:56.483Z,6.03
2019-01-18T18:15:50.983Z,7.80
2019-01-18T18:18:47.338Z,6.90
2019-01-18T18:22:02.804Z,8.37
2019-01-18T18:25:14.637Z,7.10
2019-01-18T18:28:22.700Z,5.53
2019-01-18T18:31:19.472Z,5.77
2019-01-18T18:34:12.863Z,6.23
2019-01-18T18:37:17.708Z,8.30
2019-01-18T18:40:35.987Z,5.57
2019-01-18T18:43:33.630Z,5.97
2019-01-18T18:46:57.883Z,5.63
2019-01-18T18:50:08.282Z,4.77
2019-01-18T18:53:04.653Z,4.30
2019-01-18T18:56:26.079Z,5.97
2019-01-18T18:59:36.298Z,8.20
2019-01-18T19:02:31.059Z,6.97
2019-01-18T19:05:55.624Z,10.63
2019-01-18T19:08:54.153Z,5.53
2019-01-18T19:11:42.565Z,5.40
2019-01-18T19:14:42.249Z,5.70
2019-01-18T19:17:53.459Z,7.17
2019-01-18T19:21:11.824Z,5.70
2019-01-18T19:24:32.194Z,5.97
2019-01-18T19:27:30.149Z,6.53
2019-01-18T19:30:41.053Z,8.97
2019-01-18T19:33:46.219Z,5.00
2019-01-18T19:36:44.198Z,8.23
2019-01-18T19:39:39.638Z,8.00
2019-01-18T19:42:54.293Z,10.87
2019-01-18T19:45:51.693Z,5.53
2019-01-18T19:48:58.123Z,4.10
2019-01-18T19:52:05.313Z,5.33
2019-01-18T19:55:13.153Z,5.97
2019-01-18T19:58:19.949Z,5.40
2019-01-18T20:01:01.844Z,6.47
2019-01-18T20:04:01.613Z,5.93
2019-01-18T20:07:16.918Z,8.43
2019-01-18T20:10:08.234Z,6.70
2019-01-18T20:13:32.973Z,8.37
2019-01-18T20:16:38.285Z,4.27
2019-01-18T20:19:29.342Z,4.60
2019-01-18T20:22:42.235Z,7.17
2019-01-18T20:25:44.177Z,7.03
2019-01-18T20:28:53.573Z,5.23
2019-01-18T20:32:15.059Z,5.50
2019-01-18T20:35:42.618Z,5.87
2019-01-18T20:38:41.685Z,5.57
2019-01-18T20:41:58.552Z,6.00
2019-01-18T20:44:57.788Z,6.90
2019-01-18T20:47:37.028Z,6.37
2019-01-18T20:51:25.032Z,6.93
2019-01-18T20:54:27.400Z,5.80
2019-01-18T20:57:49.193Z,6.03
2019-01-18T21:01:06.565Z,5.43
2019-01-18T21:04:26.413Z,4.70
2019-01-18T21:07:33.373Z,5.67
2019-01-18T21:10:13.272Z,6.60
2019-01-18T21:12:56.128Z,5.80
2019-01-18T21:15:36.340Z,5.57
2019-01-18T21:19:03.420Z,5.80
2019-01-18T21:22:02.882Z,4.27
2019-01-18T21:25:08.599Z,8.20
2019-01-18T21:28:16.916Z,4.83
2019-01-18T21:31:11.818Z,5.10
2019-01-18T21:34:10.038Z,6.30
2019-01-18T21:37:17.668Z,8.33
2019-01-18T21:40:38.975Z,4.33
2019-01-18T21:43:53.938Z,7.07
2019-01-18T21:47:05.118Z,7.57
2019-01-18T21:50:05.562Z,5.50
2019-01-18T21:53:09.577Z,9.27
2019-01-18T21:56:27.525Z,5.67
2019-01-18T21:59:14.590Z,10.07
2019-01-18T22:02:05.237Z,6.10
2019-01-18T22:05:11.533Z,7.23
2019-01-18T22:08:18.377Z,5.73
2019-01-18T22:11:17.068Z,7.97
2019-01-18T22:14:43.410Z,7.23
2019-01-18T22:17:48.524Z,8.60
2019-01-18T22:20:53.568Z,6.30
2019-01-18T22:23:28.978Z,5.87
2019-01-18T22:26:38.218Z,6.13
2019-01-18T22:30:02.666Z,10.90
2019-01-18T22:33:17.828Z,5.43
2019-01-18T22:36:21.473Z,6.50
2019-01-18T22:39:13.058Z,5.97
2019-01-18T22:42:12.464Z,8.50
2019-01-18T22:45:20.081Z,7.13
2019-01-18T22:48:11.711Z,6.80
2019-01-18T22:51:09.853Z,10.50
2019-01-18T22:54:12.586Z,6.43
2019-01-18T22:57:15.772Z,7.87
2019-01-18T23:00:15.859Z,9.90
2019-01-18T23:02:51.113Z,8.40
2019-01-18T23:06:03.574Z,11.63
2019-01-18T23:09:17.789Z,9.17
2019-01-18T23:12:23.078Z,13.53
2019-01-18T23:15:40.269Z,8.87
2019-01-18T23:18:29.928Z,9.33
2019-01-18T23:21:47.958Z,8.63
2019-01-18T23:24:25.689Z,12.10
2019-01-18T23:27:19.271Z,8.77
2019-01-18T23:30:08.493Z,11.60
2019-01-18T23:33:17.909Z,9.77
2019-01-18T23:36:07.213Z,8.50
2019-01-18T23:39:12.121Z,8.13
2019-01-18T23:42:22.783Z,9.67
2019-01-18T23:45:23.238Z,8.53
2019-01-18T23:48:17.852Z,9.40
2019-01-18T23:51:15.044Z,11.93
2019-01-18T23:53:53.087Z,10.43
2019-01-18T23:56:55.123Z,10.03
2019-01-18T23:59:34.868Z,7.77
